Time;durP1;ratioP1;P1;durP2;ratioP2;P2;SDS_P1;SDS_P2;PMS_P1;PMS_P2;Temp;Humidity;BMP_temperature;BMP_pressure;BME280_temperature;BME280_humidity;BME280_pressure;Samples;Min_cycle;Max_cycle;Signal;HPM_P1;HPM_P2
2023/06/14 00:00:31;;;;;;;;;;;24.90;43.00;;;;;;5050411;28;19946;-66
2023/06/14 00:02:56;;;;;;;;;;;24.90;42.90;;;;;;5049415;28;19925;-66
2023/06/14 00:05:23;;;;;;;;;;;24.90;43.00;;;;;;5050192;28;19982;-66
2023/06/14 00:07:49;;;;;;;;;;;24.90;43.00;;;;;;5067045;28;20447;-66
2023/06/14 00:10:14;;;;;;;;;;;24.90;43.00;;;;;;5053049;28;19964;-66
2023/06/14 00:12:40;;;;;;;;;;;24.90;43.00;;;;;;5055193;28;20343;-66
2023/06/14 00:15:06;;;;;;;;;;;24.90;42.90;;;;;;5053888;28;20388;-66
2023/06/14 00:17:31;;;;;;;;;;;24.90;43.00;;;;;;5071131;28;19928;-66
2023/06/14 00:19:57;;;;;;;;;;;24.80;42.90;;;;;;5055058;28;19921;-67
2023/06/14 00:22:24;;;;;;;;;;;24.80;43.00;;;;;;5070417;28;20366;-66
2023/06/14 00:24:50;;;;;;;;;;;24.80;42.90;;;;;;5070418;28;19928;-66
2023/06/14 00:27:16;;;;;;;;;;;24.80;42.90;;;;;;5053888;28;20377;-66
2023/06/14 00:29:41;;;;;;;;;;;24.80;42.90;;;;;;5053638;28;19947;-66
2023/06/14 00:32:07;;;;;;;;;;;24.80;42.90;;;;;;5053494;28;19921;-66
2023/06/14 00:34:33;;;;;;;;;;;24.80;42.90;;;;;;5054803;28;19921;-66
2023/06/14 00:36:59;;;;;;;;;;;24.70;42.90;;;;;;5052620;28;19921;-66
2023/06/14 00:39:24;;;;;;;;;;;24.70;42.90;;;;;;5054661;28;20269;-66
2023/06/14 00:41:50;;;;;;;;;;;24.70;42.90;;;;;;5053310;28;19974;-66
2023/06/14 00:44:16;;;;;;;;;;;24.70;42.90;;;;;;5054757;28;19925;-66
2023/06/14 00:46:41;;;;;;;;;;;24.70;42.90;;;;;;5054659;28;19967;-66
2023/06/14 00:49:07;;;;;;;;;;;24.70;42.90;;;;;;5054525;28;19921;-67
2023/06/14 00:51:32;;;;;;;;;;;24.70;42.90;;;;;;5053462;28;19920;-66
2023/06/14 00:53:58;;;;;;;;;;;24.70;42.90;;;;;;5053127;28;19928;-66
2023/06/14 00:56:24;;;;;;;;;;;24.70;42.90;;;;;;5053366;28;19921;-66
2023/06/14 00:58:50;;;;;;;;;;;24.60;42.90;;;;;;5054419;28;20265;-66
2023/06/14 01:01:16;;;;;;;;;;;24.60;42.90;;;;;;5052968;28;19925;-66
2023/06/14 01:03:41;;;;;;;;;;;24.60;42.80;;;;;;5052904;28;19924;-66
2023/06/14 01:06:29;;;;;;;;;;;24.60;43.60;;;;;;5052895;28;19921;-66
2023/06/14 01:11:47;;;;;;;;;;;24.50;42.80;;;;;;5110324;27;20142;-66
2023/06/14 01:14:14;;;;;;;;;;;24.60;42.80;;;;;;5109250;28;19985;-66
2023/06/14 01:16:40;;;;;;;;;;;24.60;42.90;;;;;;5108914;28;19931;-66
2023/06/14 01:19:06;;;;;;;;;;;24.50;42.80;;;;;;5110136;28;20025;-66
2023/06/14 01:21:36;;;;;;;;;;;24.50;42.80;;;;;;5109187;28;19919;-66
2023/06/14 01:24:03;;;;;;;;;;;24.50;42.80;;;;;;5108678;28;19934;-66
2023/06/14 01:26:28;;;;;;;;;;;24.50;42.80;;;;;;5109158;28;19920;-66
2023/06/14 01:28:58;;;;;;;;;;;24.50;42.90;;;;;;5109922;28;20350;-66
2023/06/14 01:31:24;;;;;;;;;;;24.50;42.90;;;;;;5108556;28;19953;-66
2023/06/14 01:33:50;;;;;;;;;;;24.50;42.90;;;;;;5110078;28;19924;-66
2023/06/14 01:36:18;;;;;;;;;;;24.50;42.90;;;;;;5109804;28;20442;-66
2023/06/14 01:38:44;;;;;;;;;;;24.50;42.90;;;;;;5110053;28;20401;-66
2023/06/14 01:41:09;;;;;;;;;;;24.40;42.90;;;;;;5109779;28;19921;-66
2023/06/14 01:43:35;;;;;;;;;;;24.40;42.90;;;;;;5108374;28;20314;-66
2023/06/14 01:46:01;;;;;;;;;;;24.40;42.90;;;;;;5109575;28;19973;-66
2023/06/14 01:48:26;;;;;;;;;;;24.40;42.90;;;;;;5108574;28;19924;-66
2023/06/14 01:50:52;;;;;;;;;;;24.40;42.90;;;;;;5108208;28;19924;-66
2023/06/14 01:53:17;;;;;;;;;;;24.40;42.90;;;;;;5142914;27;19924;-66
2023/06/14 01:55:44;;;;;;;;;;;24.40;42.90;;;;;;5108058;28;20436;-66
2023/06/14 01:58:10;;;;;;;;;;;24.40;42.90;;;;;;5108111;28;19920;-66
2023/06/14 02:00:36;;;;;;;;;;;24.30;42.90;;;;;;5108044;28;19923;-66
2023/06/14 02:03:04;;;;;;;;;;;24.30;42.90;;;;;;5108348;28;19920;-66
2023/06/14 02:05:30;;;;;;;;;;;24.30;42.90;;;;;;5109466;28;20343;-66
2023/06/14 02:07:55;;;;;;;;;;;24.30;42.90;;;;;;5109371;28;19982;-66
2023/06/14 02:10:21;;;;;;;;;;;24.30;42.90;;;;;;5107642;28;19924;-66
2023/06/14 02:12:49;;;;;;;;;;;24.30;42.90;;;;;;5109150;28;20371;-66
2023/06/14 02:15:17;;;;;;;;;;;24.30;42.90;;;;;;5108009;28;19920;-66
2023/06/14 02:17:44;;;;;;;;;;;24.30;42.90;;;;;;5108941;28;19931;-66
2023/06/14 02:20:10;;;;;;;;;;;24.20;42.90;;;;;;5107948;28;19943;-66
2023/06/14 02:22:35;;;;;;;;;;;24.30;42.90;;;;;;5097823;28;19942;-66
2023/06/14 02:25:01;;;;;;;;;;;24.20;42.90;;;;;;5094318;28;19962;-66
2023/06/14 02:27:26;;;;;;;;;;;24.20;42.90;;;;;;5093898;28;19977;-66
2023/06/14 02:29:52;;;;;;;;;;;24.20;42.90;;;;;;5095187;28;19924;-66
2023/06/14 02:32:17;;;;;;;;;;;24.20;42.90;;;;;;5093814;28;19928;-66
2023/06/14 02:34:43;;;;;;;;;;;24.10;42.90;;;;;;5095126;28;20337;-66
2023/06/14 02:37:08;;;;;;;;;;;24.10;42.90;;;;;;5095089;28;19927;-66
2023/06/14 02:39:34;;;;;;;;;;;24.10;42.90;;;;;;5093811;28;20542;-66
2023/06/14 02:42:00;;;;;;;;;;;24.10;42.90;;;;;;5094004;28;19920;-66
2023/06/14 02:44:27;;;;;;;;;;;24.10;42.90;;;;;;5093658;28;19943;-67
2023/06/14 02:46:53;;;;;;;;;;;24.10;42.90;;;;;;5093903;28;19927;-66
2023/06/14 02:49:19;;;;;;;;;;;24.10;42.90;;;;;;5093782;28;20129;-66
2023/06/14 02:51:44;;;;;;;;;;;24.10;42.90;;;;;;5094767;28;20454;-66
2023/06/14 02:54:10;;;;;;;;;;;24.10;43.00;;;;;;5093820;28;19962;-66
2023/06/14 02:56:35;;;;;;;;;;;24.10;43.00;;;;;;5093378;28;20391;-66
2023/06/14 02:59:02;;;;;;;;;;;24.10;42.90;;;;;;5093430;28;19931;-66
2023/06/14 03:01:35;;;;;;;;;;;24.10;43.00;;;;;;5093574;28;19931;-66
2023/06/14 03:04:01;;;;;;;;;;;24.00;42.90;;;;;;5093278;28;19920;-66
2023/06/14 03:06:29;;;;;;;;;;;24.00;42.90;;;;;;5093563;28;20401;-66
2023/06/14 03:08:59;;;;;;;;;;;24.00;43.00;;;;;;5093209;28;19920;-66
2023/06/14 03:11:25;;;;;;;;;;;23.90;42.90;;;;;;5092837;28;19924;-66
2023/06/14 03:13:50;;;;;;;;;;;24.00;43.00;;;;;;5093269;28;20356;-66
2023/06/14 03:16:19;;;;;;;;;;;24.00;43.00;;;;;;5093077;28;19927;-66
2023/06/14 03:18:45;;;;;;;;;;;24.00;43.00;;;;;;5093204;28;20287;-66
2023/06/14 03:21:10;;;;;;;;;;;23.90;43.00;;;;;;5092981;28;19920;-66
2023/06/14 03:23:36;;;;;;;;;;;23.90;43.00;;;;;;5093154;28;19934;-66
2023/06/14 03:26:01;;;;;;;;;;;23.90;43.00;;;;;;5076034;28;19975;-66
2023/06/14 03:28:27;;;;;;;;;;;23.90;43.00;;;;;;5092754;28;19931;-66
2023/06/14 03:30:52;;;;;;;;;;;23.90;43.00;;;;;;5093961;28;19931;-66
2023/06/14 03:33:19;;;;;;;;;;;23.90;43.00;;;;;;5091904;28;20027;-66
2023/06/14 03:35:44;;;;;;;;;;;23.90;43.00;;;;;;5094117;28;20363;-66
2023/06/14 03:38:10;;;;;;;;;;;23.80;42.90;;;;;;5093858;28;19962;-66
2023/06/14 03:40:35;;;;;;;;;;;23.90;43.10;;;;;;5092887;28;19935;-66
2023/06/14 03:43:01;;;;;;;;;;;23.80;43.10;;;;;;5094202;28;20375;-66
2023/06/14 03:45:26;;;;;;;;;;;23.80;43.00;;;;;;5093751;28;19924;-66
2023/06/14 03:47:52;;;;;;;;;;;23.80;43.10;;;;;;5093668;28;20260;-66
2023/06/14 03:50:18;;;;;;;;;;;23.80;43.10;;;;;;5092510;28;20387;-66
2023/06/14 03:52:44;;;;;;;;;;;23.80;43.10;;;;;;5093715;28;19960;-66
2023/06/14 03:55:10;;;;;;;;;;;23.80;43.10;;;;;;5092238;28;19966;-66
2023/06/14 03:57:35;;;;;;;;;;;23.80;43.10;;;;;;5093668;28;20377;-66
2023/06/14 04:00:01;;;;;;;;;;;23.80;43.20;;;;;;5093402;28;19986;-66
2023/06/14 04:02:28;;;;;;;;;;;23.80;43.20;;;;;;5092497;28;19988;-66
2023/06/14 04:04:54;;;;;;;;;;;23.70;43.10;;;;;;5093306;28;19930;-66
2023/06/14 04:07:20;;;;;;;;;;;23.70;43.10;;;;;;5092362;28;19924;-66
2023/06/14 04:09:46;;;;;;;;;;;23.70;43.10;;;;;;5091906;28;20422;-66
2023/06/14 04:12:11;;;;;;;;;;;23.70;43.20;;;;;;5091984;28;19920;-66
2023/06/14 04:14:37;;;;;;;;;;;23.70;43.20;;;;;;5092207;28;20015;-66
2023/06/14 04:17:03;;;;;;;;;;;23.70;43.20;;;;;;5092232;28;19928;-66
2023/06/14 04:19:29;;;;;;;;;;;23.70;43.20;;;;;;5093015;28;19965;-66
2023/06/14 04:21:54;;;;;;;;;;;23.70;43.20;;;;;;5093368;28;20444;-66
2023/06/14 04:24:20;;;;;;;;;;;23.60;43.20;;;;;;5090999;28;19926;-66
2023/06/14 04:26:47;;;;;;;;;;;23.70;43.30;;;;;;5091596;28;20268;-66
2023/06/14 04:29:14;;;;;;;;;;;23.70;43.30;;;;;;5092937;28;20351;-66
2023/06/14 04:31:40;;;;;;;;;;;23.60;43.20;;;;;;5091593;28;19928;-66
2023/06/14 04:34:05;;;;;;;;;;;23.60;43.30;;;;;;5092888;28;20299;-66
2023/06/14 04:36:34;;;;;;;;;;;23.60;43.40;;;;;;5091412;28;19921;-66
2023/06/14 04:39:00;;;;;;;;;;;23.60;43.30;;;;;;5093044;28;19920;-66
2023/06/14 04:41:30;;;;;;;;;;;23.60;43.40;;;;;;5092873;28;20391;-66
2023/06/14 04:43:57;;;;;;;;;;;23.60;43.40;;;;;;5091642;28;20006;-66
2023/06/14 04:46:22;;;;;;;;;;;23.50;43.40;;;;;;5091555;28;19927;-66
2023/06/14 04:48:50;;;;;;;;;;;23.50;43.50;;;;;;5091281;28;20379;-66
2023/06/14 04:51:16;;;;;;;;;;;23.50;43.40;;;;;;5091314;28;19924;-66
2023/06/14 04:53:43;;;;;;;;;;;23.60;43.50;;;;;;5091654;28;19920;-66
2023/06/14 04:56:09;;;;;;;;;;;23.50;43.50;;;;;;5091699;28;20016;-66
2023/06/14 04:58:35;;;;;;;;;;;23.50;43.50;;;;;;5092484;28;20019;-66
2023/06/14 05:01:01;;;;;;;;;;;23.50;43.50;;;;;;5091163;28;20144;-66
2023/06/14 05:03:27;;;;;;;;;;;23.50;43.50;;;;;;5091472;28;20019;-66
2023/06/14 05:05:53;;;;;;;;;;;23.50;43.50;;;;;;5092313;28;19969;-66
2023/06/14 05:08:18;;;;;;;;;;;23.50;43.50;;;;;;5091147;28;20069;-66
2023/06/14 05:10:44;;;;;;;;;;;23.50;43.50;;;;;;5104817;28;19924;-66
2023/06/14 05:13:10;;;;;;;;;;;23.50;43.50;;;;;;5094400;28;19920;-66
2023/06/14 05:15:35;;;;;;;;;;;23.50;43.60;;;;;;5094835;28;19919;-66
2023/06/14 05:18:02;;;;;;;;;;;23.50;43.60;;;;;;5128778;28;19926;-66
2023/06/14 05:20:28;;;;;;;;;;;23.50;43.70;;;;;;5094371;28;19920;-66
2023/06/14 05:22:54;;;;;;;;;;;23.50;43.70;;;;;;5094648;28;19920;-66
2023/06/14 05:25:20;;;;;;;;;;;23.50;43.70;;;;;;5094688;28;19920;-66
2023/06/14 05:27:46;;;;;;;;;;;23.50;43.70;;;;;;5112039;28;20282;-66
2023/06/14 05:30:12;;;;;;;;;;;23.50;43.70;;;;;;5128103;28;19931;-70
2023/06/14 05:32:38;;;;;;;;;;;23.50;43.60;;;;;;5111768;28;19920;-69
2023/06/14 05:35:04;;;;;;;;;;;23.40;43.50;;;;;;5094482;28;20255;-67
2023/06/14 05:37:30;;;;;;;;;;;23.50;43.70;;;;;;5090252;28;19961;-67
2023/06/14 05:39:56;;;;;;;;;;;23.50;43.50;;;;;;5109202;28;19945;-67
2023/06/14 05:42:22;;;;;;;;;;;23.50;43.50;;;;;;5109066;28;19920;-66
2023/06/14 05:44:47;;;;;;;;;;;23.50;43.50;;;;;;5107202;28;20006;-67
2023/06/14 05:47:13;;;;;;;;;;;23.40;43.60;;;;;;5084064;28;20130;-67
2023/06/14 05:49:38;;;;;;;;;;;23.40;43.50;;;;;;5105793;28;19920;-65
2023/06/14 05:52:04;;;;;;;;;;;23.50;43.50;;;;;;5106729;28;20422;-67
2023/06/14 05:54:30;;;;;;;;;;;23.50;43.50;;;;;;5087524;28;19935;-67
2023/06/14 05:56:55;;;;;;;;;;;23.50;43.40;;;;;;5105860;28;19923;-67
2023/06/14 05:59:21;;;;;;;;;;;23.50;43.60;;;;;;5087965;28;19938;-67
2023/06/14 06:01:46;;;;;;;;;;;23.50;43.80;;;;;;5105259;28;19962;-67
2023/06/14 06:04:12;;;;;;;;;;;23.50;43.90;;;;;;5087437;28;19919;-67
2023/06/14 06:06:38;;;;;;;;;;;23.50;44.00;;;;;;5089728;28;20415;-67
2023/06/14 06:09:03;;;;;;;;;;;23.50;44.00;;;;;;5106929;28;20025;-68
2023/06/14 06:11:29;;;;;;;;;;;23.50;43.90;;;;;;5084893;28;20010;-65
2023/06/14 06:13:54;;;;;;;;;;;23.50;44.00;;;;;;5085874;28;20310;-67
2023/06/14 06:16:20;;;;;;;;;;;23.50;44.10;;;;;;5076377;28;19924;-68
2023/06/14 06:18:46;;;;;;;;;;;23.50;44.20;;;;;;5072551;28;20259;-67
2023/06/14 06:21:11;;;;;;;;;;;23.50;44.30;;;;;;5109695;27;19955;-66
2023/06/14 06:23:36;;;;;;;;;;;23.50;44.10;;;;;;5093749;28;19931;-69
2023/06/14 06:26:02;;;;;;;;;;;23.50;44.30;;;;;;5107559;27;19923;-67
2023/06/14 06:28:28;;;;;;;;;;;23.50;44.20;;;;;;5097525;28;20038;-66
2023/06/14 06:30:54;;;;;;;;;;;23.50;44.10;;;;;;5105609;27;20015;-66
2023/06/14 06:33:19;;;;;;;;;;;23.60;44.50;;;;;;5072292;28;20398;-66
2023/06/14 06:35:45;;;;;;;;;;;23.50;44.30;;;;;;5074237;28;19931;-66
2023/06/14 06:38:10;;;;;;;;;;;23.50;44.30;;;;;;5093463;28;19936;-67
2023/06/14 06:40:36;;;;;;;;;;;23.50;44.40;;;;;;5071087;28;20515;-67
2023/06/14 06:43:02;;;;;;;;;;;23.40;44.10;;;;;;5089504;28;20279;-67
2023/06/14 06:45:27;;;;;;;;;;;23.40;43.90;;;;;;5071923;28;19924;-62
2023/06/14 06:47:53;;;;;;;;;;;23.50;43.70;;;;;;5095154;28;20553;-62
2023/06/14 06:50:19;;;;;;;;;;;23.40;44.00;;;;;;5076961;28;20026;-68
2023/06/14 06:52:45;;;;;;;;;;;23.40;43.80;;;;;;5094614;28;19927;-65
2023/06/14 06:55:11;;;;;;;;;;;23.50;44.00;;;;;;5074968;28;19924;-67
2023/06/14 06:57:36;;;;;;;;;;;23.40;44.20;;;;;;5078239;28;20390;-68
2023/06/14 07:00:05;;;;;;;;;;;23.40;44.10;;;;;;5075570;28;19920;-70
2023/06/14 07:02:30;;;;;;;;;;;23.50;43.90;;;;;;5083589;28;20014;-64
2023/06/14 07:04:56;;;;;;;;;;;23.40;44.10;;;;;;5105034;27;20529;-64
2023/06/14 07:07:21;;;;;;;;;;;23.40;44.30;;;;;;5090988;28;19947;-70
2023/06/14 07:09:47;;;;;;;;;;;23.40;44.70;;;;;;5073366;28;20006;-69
2023/06/14 07:12:12;;;;;;;;;;;23.40;44.20;;;;;;5069127;28;20019;-70
2023/06/14 07:14:38;;;;;;;;;;;23.40;43.90;;;;;;5072216;28;19939;-69
2023/06/14 07:17:03;;;;;;;;;;;23.40;44.10;;;;;;5070252;28;19928;-72
2023/06/14 07:19:30;;;;;;;;;;;23.40;44.30;;;;;;5106264;27;19944;-69
2023/06/14 07:21:55;;;;;;;;;;;23.40;44.40;;;;;;5102403;27;19920;-68
2023/06/14 07:24:21;;;;;;;;;;;23.40;44.20;;;;;;5072312;28;19923;-67
2023/06/14 07:26:47;;;;;;;;;;;23.40;44.20;;;;;;5091678;28;20506;-65
2023/06/14 07:29:13;;;;;;;;;;;23.40;44.80;;;;;;5075889;28;19950;-64
2023/06/14 07:31:38;;;;;;;;;;;23.40;45.00;;;;;;5073811;28;19924;-69
2023/06/14 07:34:04;;;;;;;;;;;23.40;45.10;;;;;;5074479;28;20018;-68
2023/06/14 07:36:30;;;;;;;;;;;23.40;44.80;;;;;;5076975;28;19927;-69
2023/06/14 07:38:55;;;;;;;;;;;23.40;44.70;;;;;;5078702;28;19920;-69
2023/06/14 07:41:21;;;;;;;;;;;23.40;44.70;;;;;;5074455;28;19932;-69
2023/06/14 07:43:47;;;;;;;;;;;23.40;44.70;;;;;;5075079;28;19931;-69
2023/06/14 07:46:12;;;;;;;;;;;23.40;44.60;;;;;;5074359;28;19976;-69
2023/06/14 07:48:38;;;;;;;;;;;23.40;44.60;;;;;;5083969;28;19920;-69
2023/06/14 07:51:03;;;;;;;;;;;23.40;44.50;;;;;;5104637;28;19924;-68
2023/06/14 07:53:30;;;;;;;;;;;23.40;44.10;;;;;;5099458;28;20015;-70
2023/06/14 07:55:56;;;;;;;;;;;23.40;43.90;;;;;;5088202;28;19920;-70
2023/06/14 07:58:21;;;;;;;;;;;23.40;43.60;;;;;;5106861;27;19927;-71
2023/06/14 08:00:47;;;;;;;;;;;23.40;43.80;;;;;;5075858;28;19921;-63
2023/06/14 08:03:12;;;;;;;;;;;23.40;44.00;;;;;;5090180;28;20504;-66
2023/06/14 08:05:38;;;;;;;;;;;23.40;43.80;;;;;;5075651;28;19920;-66
2023/06/14 08:08:03;;;;;;;;;;;23.40;43.60;;;;;;5108944;27;19920;-66
2023/06/14 08:10:29;;;;;;;;;;;23.40;43.50;;;;;;5067249;28;19924;-66
2023/06/14 08:12:54;;;;;;;;;;;23.40;43.40;;;;;;5090003;28;19931;-66
2023/06/14 08:15:20;;;;;;;;;;;23.40;43.50;;;;;;5076891;28;19970;-66
2023/06/14 08:17:45;;;;;;;;;;;23.40;43.30;;;;;;5078119;28;19920;-66
2023/06/14 08:20:11;;;;;;;;;;;23.40;43.30;;;;;;5109689;27;19941;-63
2023/06/14 08:22:37;;;;;;;;;;;23.40;44.00;;;;;;5077244;28;19927;-64
2023/06/14 08:25:03;;;;;;;;;;;23.40;43.30;;;;;;5097351;27;19924;-67
2023/06/14 08:27:29;;;;;;;;;;;23.40;43.30;;;;;;5075627;28;19958;-65
2023/06/14 08:29:55;;;;;;;;;;;23.40;43.20;;;;;;5078469;28;20382;-63
2023/06/14 08:32:21;;;;;;;;;;;23.40;43.50;;;;;;5095744;28;20426;-63
2023/06/14 08:34:46;;;;;;;;;;;23.40;43.50;;;;;;5079460;28;19916;-63
2023/06/14 08:37:12;;;;;;;;;;;23.40;43.60;;;;;;5078464;28;20081;-63
2023/06/14 08:39:37;;;;;;;;;;;23.50;43.60;;;;;;5096706;28;19949;-63
2023/06/14 08:42:05;;;;;;;;;;;23.40;43.30;;;;;;5076706;28;20317;-63
2023/06/14 08:44:31;;;;;;;;;;;23.50;43.80;;;;;;5076152;28;19958;-64
2023/06/14 08:46:57;;;;;;;;;;;23.50;44.00;;;;;;5093859;28;20361;-67
2023/06/14 08:49:23;;;;;;;;;;;23.50;43.50;;;;;;5103658;27;19916;-67
2023/06/14 08:51:51;;;;;;;;;;;23.50;42.80;;;;;;5078191;28;19934;-67
2023/06/14 08:54:20;;;;;;;;;;;23.50;42.60;;;;;;5099455;28;19916;-67
2023/06/14 08:56:48;;;;;;;;;;;23.50;42.60;;;;;;5079875;28;19967;-67
2023/06/14 08:59:13;;;;;;;;;;;23.50;42.60;;;;;;5081279;28;19923;-64
2023/06/14 09:01:39;;;;;;;;;;;23.50;42.70;;;;;;5087560;28;20266;-64
2023/06/14 09:04:05;;;;;;;;;;;23.50;43.00;;;;;;5098657;28;20200;-63
2023/06/14 09:06:31;;;;;;;;;;;23.60;43.30;;;;;;5100123;28;20303;-72
2023/06/14 09:08:57;;;;;;;;;;;23.60;43.30;;;;;;5078127;28;19970;-74
2023/06/14 09:11:22;;;;;;;;;;;23.70;43.40;;;;;;5078217;28;19971;-65
2023/06/14 09:13:48;;;;;;;;;;;23.70;43.60;;;;;;5097981;28;19924;-68
2023/06/14 09:16:14;;;;;;;;;;;23.70;43.70;;;;;;5080721;28;19969;-65
2023/06/14 09:21:21;;;;;;;;;;;23.80;42.90;;;;;;5087561;27;19912;-68
2023/06/14 09:23:47;;;;;;;;;;;23.80;42.90;;;;;;5072492;28;19960;-64
2023/06/14 09:26:14;;;;;;;;;;;23.80;42.80;;;;;;5078623;28;19920;-67
2023/06/14 09:28:42;;;;;;;;;;;23.80;43.00;;;;;;5108060;28;19939;-66
2023/06/14 09:31:09;;;;;;;;;;;23.90;43.40;;;;;;5106154;28;19923;-63
2023/06/14 09:33:35;;;;;;;;;;;23.90;43.10;;;;;;5074088;28;19963;-63
2023/06/14 09:36:00;;;;;;;;;;;23.90;42.70;;;;;;5076493;28;19971;-64
2023/06/14 09:38:26;;;;;;;;;;;23.80;42.40;;;;;;5080467;28;19927;-66
2023/06/14 09:40:52;;;;;;;;;;;23.90;42.20;;;;;;5081817;28;19929;-63
2023/06/14 09:43:18;;;;;;;;;;;23.80;41.80;;;;;;5081268;28;19947;-63
2023/06/14 09:45:45;;;;;;;;;;;23.80;41.60;;;;;;5106909;28;19920;-63
2023/06/14 09:48:11;;;;;;;;;;;23.80;41.60;;;;;;5082634;28;19923;-65
2023/06/14 09:50:37;;;;;;;;;;;23.90;41.60;;;;;;5081463;28;20145;-65
2023/06/14 09:53:05;;;;;;;;;;;23.80;41.40;;;;;;5076405;28;20181;-66
2023/06/14 09:55:34;;;;;;;;;;;23.80;41.00;;;;;;5074140;28;19917;-65
2023/06/14 09:58:00;;;;;;;;;;;23.80;40.80;;;;;;5076746;28;20007;-61
2023/06/14 10:00:26;;;;;;;;;;;23.80;40.90;;;;;;5081322;28;19920;-62
2023/06/14 10:02:54;;;;;;;;;;;23.80;41.40;;;;;;5105103;28;19920;-62
2023/06/14 10:05:20;;;;;;;;;;;23.90;40.80;;;;;;5083339;28;19916;-62
2023/06/14 10:10:27;;;;;;;;;;;23.80;41.20;;;;;;5086436;27;20387;-62
2023/06/14 10:12:54;;;;;;;;;;;23.80;41.10;;;;;;5079881;28;19916;-62
2023/06/14 10:15:24;;;;;;;;;;;23.90;41.10;;;;;;5117715;28;19920;-62
2023/06/14 10:17:55;;;;;;;;;;;23.90;40.80;;;;;;5081226;28;20018;-62
2023/06/14 10:20:27;;;;;;;;;;;23.90;40.50;;;;;;5083596;28;20383;-62
2023/06/14 10:22:58;;;;;;;;;;;23.90;40.30;;;;;;5104674;28;20409;-62
2023/06/14 10:25:28;;;;;;;;;;;23.90;40.30;;;;;;5082606;28;19990;-63
2023/06/14 10:28:14;;;;;;;;;;;23.90;40.70;;;;;;5097563;28;19928;-63
2023/06/14 10:31:00;;;;;;;;;;;23.90;40.30;;;;;;5081375;28;20307;-63
2023/06/14 10:33:26;;;;;;;;;;;23.90;40.60;;;;;;5080027;28;20015;-64
2023/06/14 10:36:06;;;;;;;;;;;23.90;40.50;;;;;;5115563;28;20011;-63
2023/06/14 10:38:33;;;;;;;;;;;23.90;40.60;;;;;;5083567;28;19916;-64
2023/06/14 10:40:58;;;;;;;;;;;23.90;40.60;;;;;;5120722;27;19920;-63
2023/06/14 10:43:24;;;;;;;;;;;24.00;40.50;;;;;;5085411;28;20348;-62
2023/06/14 10:46:09;;;;;;;;;;;23.90;40.50;;;;;;5082125;28;19928;-63
2023/06/14 10:48:39;;;;;;;;;;;23.90;40.70;;;;;;5082378;28;19925;-63
2023/06/14 10:51:05;;;;;;;;;;;24.00;40.40;;;;;;5081296;28;19975;-65
2023/06/14 10:53:39;;;;;;;;;;;24.00;40.50;;;;;;5076538;28;19932;-64
2023/06/14 10:56:06;;;;;;;;;;;24.10;41.70;;;;;;5079827;28;19952;-64
2023/06/14 10:58:32;;;;;;;;;;;24.00;40.70;;;;;;5080501;28;19955;-64
2023/06/14 11:00:58;;;;;;;;;;;24.00;40.40;;;;;;5074565;28;19987;-65
2023/06/14 11:06:11;;;;;;;;;;;24.00;40.10;;;;;;5105198;27;19969;-64
2023/06/14 11:08:41;;;;;;;;;;;24.00;40.30;;;;;;5094948;28;19928;-64
2023/06/14 11:11:08;;;;;;;;;;;24.00;40.30;;;;;;5092989;28;20010;-64
2023/06/14 11:13:34;;;;;;;;;;;24.00;40.30;;;;;;5095990;28;19924;-64
2023/06/14 11:16:00;;;;;;;;;;;24.00;40.40;;;;;;5100733;28;19943;-64
2023/06/14 11:18:27;;;;;;;;;;;24.00;40.20;;;;;;5099130;28;19928;-63
2023/06/14 11:20:53;;;;;;;;;;;24.00;40.00;;;;;;5096587;28;19928;-64
2023/06/14 11:23:18;;;;;;;;;;;24.00;40.20;;;;;;5097754;28;19927;-62
2023/06/14 11:25:49;;;;;;;;;;;24.00;40.20;;;;;;5094156;28;19931;-63
2023/06/14 11:28:14;;;;;;;;;;;24.00;40.20;;;;;;5095355;28;19920;-62
2023/06/14 11:30:40;;;;;;;;;;;24.00;39.70;;;;;;5093253;28;19922;-62
2023/06/14 11:33:09;;;;;;;;;;;24.00;39.80;;;;;;5097116;28;19924;-62
2023/06/14 11:35:35;;;;;;;;;;;24.00;40.10;;;;;;5096624;28;19920;-65
2023/06/14 11:38:01;;;;;;;;;;;24.10;40.10;;;;;;5098333;28;20424;-65
2023/06/14 11:40:27;;;;;;;;;;;24.10;40.30;;;;;;5095784;28;20394;-65
2023/06/14 11:43:01;;;;;;;;;;;24.00;40.40;;;;;;5095185;28;20887;-65
2023/06/14 11:45:26;;;;;;;;;;;24.00;40.40;;;;;;5097921;28;19924;-65
2023/06/14 11:47:54;;;;;;;;;;;24.10;40.50;;;;;;5100808;28;19930;-65
2023/06/14 11:50:19;;;;;;;;;;;24.00;40.20;;;;;;5097900;28;19920;-65
2023/06/14 11:52:51;;;;;;;;;;;24.10;40.80;;;;;;5112048;28;20521;-65
2023/06/14 11:55:17;;;;;;;;;;;24.00;40.90;;;;;;5096122;28;19920;-65
2023/06/14 11:57:42;;;;;;;;;;;24.10;40.90;;;;;;5096447;28;19980;-65
2023/06/14 12:00:12;;;;;;;;;;;24.10;40.20;;;;;;5079289;28;20645;-65
2023/06/14 12:02:37;;;;;;;;;;;24.00;40.60;;;;;;5096667;28;19927;-65
2023/06/14 12:05:05;;;;;;;;;;;24.10;41.00;;;;;;5096346;28;20147;-65
2023/06/14 12:07:31;;;;;;;;;;;24.10;40.80;;;;;;5094926;28;20011;-65
2023/06/14 12:12:38;;;;;;;;;;;24.10;40.70;;;;;;5075767;27;19921;-65
2023/06/14 12:15:05;;;;;;;;;;;24.10;41.20;;;;;;5059096;28;19925;-65
2023/06/14 12:17:32;;;;;;;;;;;24.10;41.50;;;;;;5061668;28;19927;-65
2023/06/14 12:19:57;;;;;;;;;;;24.10;41.30;;;;;;5058021;28;20480;-65
2023/06/14 12:22:23;;;;;;;;;;;24.10;41.30;;;;;;5078127;28;20015;-65
2023/06/14 12:24:48;;;;;;;;;;;24.10;41.50;;;;;;5062159;28;19931;-70
2023/06/14 12:27:15;;;;;;;;;;;24.10;41.70;;;;;;5062039;28;19925;-70
2023/06/14 12:29:43;;;;;;;;;;;24.10;41.40;;;;;;5079904;28;20010;-70
2023/06/14 12:32:09;;;;;;;;;;;24.10;41.40;;;;;;5058528;28;20375;-70
2023/06/14 12:34:35;;;;;;;;;;;24.10;41.30;;;;;;5068568;28;19954;-69
2023/06/14 12:37:01;;;;;;;;;;;24.10;40.90;;;;;;5065034;28;20385;-69
2023/06/14 12:39:26;;;;;;;;;;;24.20;41.50;;;;;;5065814;28;19927;-69
2023/06/14 12:41:52;;;;;;;;;;;24.10;41.90;;;;;;5068012;28;19928;-70
2023/06/14 12:44:17;;;;;;;;;;;24.20;41.70;;;;;;5077296;28;19940;-70
2023/06/14 12:46:43;;;;;;;;;;;24.20;41.20;;;;;;5064641;28;20036;-70
2023/06/14 12:49:09;;;;;;;;;;;24.20;41.60;;;;;;5068584;28;20144;-70
2023/06/14 12:51:35;;;;;;;;;;;24.20;41.10;;;;;;5062787;28;20329;-69
2023/06/14 12:54:00;;;;;;;;;;;24.20;41.30;;;;;;5073888;28;19966;-69
2023/06/14 12:56:26;;;;;;;;;;;24.20;40.90;;;;;;5067660;28;19920;-70
2023/06/14 12:58:52;;;;;;;;;;;24.20;41.70;;;;;;5063926;28;19920;-70
2023/06/14 13:01:17;;;;;;;;;;;24.20;41.90;;;;;;5064825;28;20019;-69
2023/06/14 13:03:43;;;;;;;;;;;24.30;41.70;;;;;;5070138;28;19924;-69
2023/06/14 13:06:08;;;;;;;;;;;24.30;41.30;;;;;;5063794;28;19924;-70
2023/06/14 13:08:34;;;;;;;;;;;24.30;41.10;;;;;;5065545;28;19920;-70
2023/06/14 13:11:00;;;;;;;;;;;24.30;41.20;;;;;;5051211;28;19936;-70
2023/06/14 13:13:25;;;;;;;;;;;24.30;41.50;;;;;;5036729;28;19983;-69
2023/06/14 13:15:51;;;;;;;;;;;24.30;41.70;;;;;;5037190;28;20118;-71
2023/06/14 13:18:16;;;;;;;;;;;24.30;41.90;;;;;;5037314;28;19924;-72
2023/06/14 13:20:42;;;;;;;;;;;24.30;41.60;;;;;;5040233;28;20079;-71
2023/06/14 13:23:08;;;;;;;;;;;24.30;41.60;;;;;;5023166;28;20019;-72
2023/06/14 13:25:34;;;;;;;;;;;24.30;41.90;;;;;;5016278;28;20616;-66
2023/06/14 13:27:59;;;;;;;;;;;24.30;41.50;;;;;;5026335;28;19960;-67
2023/06/14 13:30:25;;;;;;;;;;;24.30;41.20;;;;;;5022444;28;19961;-66
2023/06/14 13:32:51;;;;;;;;;;;24.30;42.10;;;;;;5024596;28;19982;-66
2023/06/14 13:35:18;;;;;;;;;;;24.30;41.90;;;;;;5024100;28;20381;-67
2023/06/14 13:37:43;;;;;;;;;;;24.40;41.30;;;;;;5029108;28;20450;-67
2023/06/14 13:40:09;;;;;;;;;;;24.30;41.30;;;;;;5027178;28;19936;-67
2023/06/14 13:42:35;;;;;;;;;;;24.40;41.40;;;;;;5027791;28;19925;-67
2023/06/14 13:45:01;;;;;;;;;;;24.30;41.80;;;;;;5026739;28;19944;-67
2023/06/14 13:47:27;;;;;;;;;;;24.40;41.20;;;;;;5027452;28;19925;-66
2023/06/14 13:49:52;;;;;;;;;;;24.40;41.20;;;;;;5023731;28;19933;-66
2023/06/14 13:52:18;;;;;;;;;;;24.30;41.10;;;;;;5024137;28;19941;-66
2023/06/14 13:54:43;;;;;;;;;;;24.30;41.10;;;;;;5026936;28;19932;-66
2023/06/14 13:57:12;;;;;;;;;;;24.40;41.30;;;;;;5021941;28;19929;-66
2023/06/14 13:59:38;;;;;;;;;;;24.40;41.60;;;;;;5024743;28;19927;-66
2023/06/14 14:02:04;;;;;;;;;;;24.30;42.10;;;;;;5018675;28;19928;-67
2023/06/14 14:04:29;;;;;;;;;;;24.40;41.50;;;;;;5024062;28;19936;-66
2023/06/14 14:06:55;;;;;;;;;;;24.40;41.90;;;;;;5028812;28;20578;-67
2023/06/14 14:09:20;;;;;;;;;;;24.40;42.00;;;;;;5031254;28;19929;-67
2023/06/14 14:11:47;;;;;;;;;;;24.40;42.10;;;;;;5050398;28;20015;-64
2023/06/14 14:14:13;;;;;;;;;;;24.40;41.20;;;;;;5060400;28;20009;-63
2023/06/14 14:16:38;;;;;;;;;;;24.50;41.40;;;;;;5064787;28;19967;-65
2023/06/14 14:19:04;;;;;;;;;;;24.50;41.60;;;;;;5068105;28;19928;-64
2023/06/14 14:21:29;;;;;;;;;;;24.50;41.80;;;;;;5059429;28;19924;-67
2023/06/14 14:23:55;;;;;;;;;;;24.50;42.10;;;;;;5065127;28;19920;-65